sensor_id;sensor_type;location;lat;lon;timestamp;P1;durP1;ratioP1;P2;durP2;ratioP2
12385;SDS011;6257;57.634;18.310;2023-07-20T00:02:06;2.33;;;0.67;;
12385;SDS011;6257;57.634;18.310;2023-07-20T00:04:33;3.30;;;1.00;;
12385;SDS011;6257;57.634;18.310;2023-07-20T00:07:00;3.57;;;0.83;;
12385;SDS011;6257;57.634;18.310;2023-07-20T00:09:27;2.40;;;0.77;;
12385;SDS011;6257;57.634;18.310;2023-07-20T00:11:54;2.07;;;1.03;;
12385;SDS011;6257;57.634;18.310;2023-07-20T00:14:23;1.67;;;0.80;;
12385;SDS011;6257;57.634;18.310;2023-07-20T00:16:50;2.27;;;0.90;;
12385;SDS011;6257;57.634;18.310;2023-07-20T00:19:21;1.13;;;0.80;;
12385;SDS011;6257;57.634;18.310;2023-07-20T00:21:48;1.80;;;0.83;;
12385;SDS011;6257;57.634;18.310;2023-07-20T00:24:15;4.23;;;1.00;;
12385;SDS011;6257;57.634;18.310;2023-07-20T00:26:43;3.43;;;0.90;;
12385;SDS011;6257;57.634;18.310;2023-07-20T00:29:10;2.53;;;0.73;;
12385;SDS011;6257;57.634;18.310;2023-07-20T00:31:39;2.53;;;0.90;;
12385;SDS011;6257;57.634;18.310;2023-07-20T00:34:07;2.90;;;0.87;;
12385;SDS011;6257;57.634;18.310;2023-07-20T00:36:34;3.50;;;1.00;;
12385;SDS011;6257;57.634;18.310;2023-07-20T00:39:02;3.40;;;0.97;;
12385;SDS011;6257;57.634;18.310;2023-07-20T00:41:29;3.97;;;1.07;;
12385;SDS011;6257;57.634;18.310;2023-07-20T00:43:58;3.03;;;0.90;;
12385;SDS011;6257;57.634;18.310;2023-07-20T00:46:25;2.57;;;0.80;;
12385;SDS011;6257;57.634;18.310;2023-07-20T00:48:54;4.50;;;1.20;;
12385;SDS011;6257;57.634;18.310;2023-07-20T00:51:21;3.37;;;1.00;;
12385;SDS011;6257;57.634;18.310;2023-07-20T00:53:49;3.30;;;0.87;;
12385;SDS011;6257;57.634;18.310;2023-07-20T00:56:17;3.07;;;0.90;;
12385;SDS011;6257;57.634;18.310;2023-07-20T00:58:44;3.00;;;0.80;;
12385;SDS011;6257;57.634;18.310;2023-07-20T01:01:11;3.13;;;0.83;;
12385;SDS011;6257;57.634;18.310;2023-07-20T01:03:39;3.47;;;0.80;;
12385;SDS011;6257;57.634;18.310;2023-07-20T01:06:10;2.83;;;0.90;;
12385;SDS011;6257;57.634;18.310;2023-07-20T01:08:46;4.17;;;1.03;;
12385;SDS011;6257;57.634;18.310;2023-07-20T01:11:23;2.57;;;1.00;;
12385;SDS011;6257;57.634;18.310;2023-07-20T01:13:58;4.17;;;1.13;;
12385;SDS011;6257;57.634;18.310;2023-07-20T01:16:27;2.17;;;0.77;;
12385;SDS011;6257;57.634;18.310;2023-07-20T01:18:54;3.17;;;1.00;;
12385;SDS011;6257;57.634;18.310;2023-07-20T01:21:24;1.30;;;0.80;;
12385;SDS011;6257;57.634;18.310;2023-07-20T01:24:05;2.80;;;0.87;;
12385;SDS011;6257;57.634;18.310;2023-07-20T01:27:10;2.87;;;0.73;;
12385;SDS011;6257;57.634;18.310;2023-07-20T01:30:01;3.20;;;1.10;;
12385;SDS011;6257;57.634;18.310;2023-07-20T01:32:39;2.67;;;0.90;;
12385;SDS011;6257;57.634;18.310;2023-07-20T01:35:09;2.53;;;0.80;;
12385;SDS011;6257;57.634;18.310;2023-07-20T01:37:40;4.43;;;1.23;;
12385;SDS011;6257;57.634;18.310;2023-07-20T01:40:10;4.43;;;1.40;;
12385;SDS011;6257;57.634;18.310;2023-07-20T01:42:42;1.87;;;1.00;;
12385;SDS011;6257;57.634;18.310;2023-07-20T01:45:11;3.17;;;1.07;;
12385;SDS011;6257;57.634;18.310;2023-07-20T01:47:39;6.33;;;1.10;;
12385;SDS011;6257;57.634;18.310;2023-07-20T01:50:07;4.30;;;1.00;;
12385;SDS011;6257;57.634;18.310;2023-07-20T01:52:35;2.93;;;0.90;;
12385;SDS011;6257;57.634;18.310;2023-07-20T01:55:02;2.80;;;1.10;;
12385;SDS011;6257;57.634;18.310;2023-07-20T01:57:30;2.60;;;0.80;;
12385;SDS011;6257;57.634;18.310;2023-07-20T01:59:58;2.40;;;0.87;;
12385;SDS011;6257;57.634;18.310;2023-07-20T02:02:26;2.80;;;1.10;;
12385;SDS011;6257;57.634;18.310;2023-07-20T02:04:55;2.17;;;1.00;;
12385;SDS011;6257;57.634;18.310;2023-07-20T02:07:22;7.60;;;1.47;;
12385;SDS011;6257;57.634;18.310;2023-07-20T02:09:50;1.57;;;0.83;;
12385;SDS011;6257;57.634;18.310;2023-07-20T02:12:17;3.60;;;1.00;;
12385;SDS011;6257;57.634;18.310;2023-07-20T02:14:44;2.90;;;1.00;;
12385;SDS011;6257;57.634;18.310;2023-07-20T02:17:11;4.33;;;1.00;;
12385;SDS011;6257;57.634;18.310;2023-07-20T02:19:40;4.53;;;1.30;;
12385;SDS011;6257;57.634;18.310;2023-07-20T02:22:09;2.90;;;1.20;;
12385;SDS011;6257;57.634;18.310;2023-07-20T02:24:36;4.00;;;1.00;;
12385;SDS011;6257;57.634;18.310;2023-07-20T02:27:03;3.73;;;0.83;;
12385;SDS011;6257;57.634;18.310;2023-07-20T02:29:32;1.57;;;0.97;;
12385;SDS011;6257;57.634;18.310;2023-07-20T02:31:59;3.23;;;1.10;;
12385;SDS011;6257;57.634;18.310;2023-07-20T02:34:26;4.00;;;1.40;;
12385;SDS011;6257;57.634;18.310;2023-07-20T02:36:54;3.07;;;1.20;;
12385;SDS011;6257;57.634;18.310;2023-07-20T02:39:25;3.00;;;1.30;;
12385;SDS011;6257;57.634;18.310;2023-07-20T02:41:53;4.07;;;1.30;;
12385;SDS011;6257;57.634;18.310;2023-07-20T02:44:21;3.37;;;1.10;;
12385;SDS011;6257;57.634;18.310;2023-07-20T02:46:48;3.90;;;1.30;;
12385;SDS011;6257;57.634;18.310;2023-07-20T02:49:15;3.13;;;1.30;;
12385;SDS011;6257;57.634;18.310;2023-07-20T02:51:42;8.23;;;1.63;;
12385;SDS011;6257;57.634;18.310;2023-07-20T02:54:09;4.17;;;1.50;;
12385;SDS011;6257;57.634;18.310;2023-07-20T02:56:39;3.83;;;1.40;;
12385;SDS011;6257;57.634;18.310;2023-07-20T02:59:06;3.00;;;1.10;;
12385;SDS011;6257;57.634;18.310;2023-07-20T03:01:33;5.40;;;1.40;;
12385;SDS011;6257;57.634;18.310;2023-07-20T03:04:00;4.20;;;1.20;;
12385;SDS011;6257;57.634;18.310;2023-07-20T03:06:27;3.43;;;1.20;;
12385;SDS011;6257;57.634;18.310;2023-07-20T03:08:54;3.93;;;1.40;;
12385;SDS011;6257;57.634;18.310;2023-07-20T03:11:23;5.07;;;1.47;;
12385;SDS011;6257;57.634;18.310;2023-07-20T03:13:51;2.57;;;0.90;;
12385;SDS011;6257;57.634;18.310;2023-07-20T03:16:19;3.60;;;1.23;;
12385;SDS011;6257;57.634;18.310;2023-07-20T03:18:46;7.00;;;1.63;;
12385;SDS011;6257;57.634;18.310;2023-07-20T03:21:13;3.30;;;1.40;;
12385;SDS011;6257;57.634;18.310;2023-07-20T03:23:41;2.47;;;1.10;;
12385;SDS011;6257;57.634;18.310;2023-07-20T03:26:08;4.80;;;1.30;;
12385;SDS011;6257;57.634;18.310;2023-07-20T03:28:35;3.30;;;1.30;;
12385;SDS011;6257;57.634;18.310;2023-07-20T03:31:05;3.03;;;1.27;;
12385;SDS011;6257;57.634;18.310;2023-07-20T03:33:32;2.97;;;1.30;;
12385;SDS011;6257;57.634;18.310;2023-07-20T03:36:00;5.87;;;1.30;;
12385;SDS011;6257;57.634;18.310;2023-07-20T03:38:27;3.77;;;1.27;;
12385;SDS011;6257;57.634;18.310;2023-07-20T03:40:55;4.37;;;1.60;;
12385;SDS011;6257;57.634;18.310;2023-07-20T03:43:23;6.07;;;1.40;;
12385;SDS011;6257;57.634;18.310;2023-07-20T03:45:51;4.10;;;1.30;;
12385;SDS011;6257;57.634;18.310;2023-07-20T03:48:21;4.93;;;1.30;;
12385;SDS011;6257;57.634;18.310;2023-07-20T03:50:50;4.47;;;1.37;;
12385;SDS011;6257;57.634;18.310;2023-07-20T03:53:18;5.03;;;1.30;;
12385;SDS011;6257;57.634;18.310;2023-07-20T03:55:46;3.30;;;1.10;;
12385;SDS011;6257;57.634;18.310;2023-07-20T03:58:14;2.93;;;1.30;;
12385;SDS011;6257;57.634;18.310;2023-07-20T04:00:44;3.87;;;1.40;;
12385;SDS011;6257;57.634;18.310;2023-07-20T04:03:12;4.77;;;1.70;;
12385;SDS011;6257;57.634;18.310;2023-07-20T04:05:41;3.47;;;1.40;;
12385;SDS011;6257;57.634;18.310;2023-07-20T04:08:08;3.53;;;1.30;;
12385;SDS011;6257;57.634;18.310;2023-07-20T04:10:36;4.50;;;1.37;;
12385;SDS011;6257;57.634;18.310;2023-07-20T04:13:04;3.47;;;1.47;;
12385;SDS011;6257;57.634;18.310;2023-07-20T04:15:31;4.57;;;1.30;;
12385;SDS011;6257;57.634;18.310;2023-07-20T04:17:59;4.23;;;1.30;;
12385;SDS011;6257;57.634;18.310;2023-07-20T04:20:26;6.60;;;1.77;;
12385;SDS011;6257;57.634;18.310;2023-07-20T04:22:54;4.83;;;1.43;;
12385;SDS011;6257;57.634;18.310;2023-07-20T04:25:21;5.60;;;1.40;;
12385;SDS011;6257;57.634;18.310;2023-07-20T04:27:49;2.40;;;1.30;;
12385;SDS011;6257;57.634;18.310;2023-07-20T04:30:17;2.03;;;1.13;;
12385;SDS011;6257;57.634;18.310;2023-07-20T04:32:46;4.83;;;1.53;;
12385;SDS011;6257;57.634;18.310;2023-07-20T04:35:16;2.23;;;1.23;;
12385;SDS011;6257;57.634;18.310;2023-07-20T04:37:44;5.00;;;1.40;;
12385;SDS011;6257;57.634;18.310;2023-07-20T04:40:15;7.43;;;1.40;;
12385;SDS011;6257;57.634;18.310;2023-07-20T04:42:42;4.77;;;1.60;;
12385;SDS011;6257;57.634;18.310;2023-07-20T04:45:09;4.63;;;1.43;;
12385;SDS011;6257;57.634;18.310;2023-07-20T04:47:36;4.07;;;1.33;;
12385;SDS011;6257;57.634;18.310;2023-07-20T04:50:04;5.07;;;1.73;;
12385;SDS011;6257;57.634;18.310;2023-07-20T04:52:32;3.60;;;1.73;;
12385;SDS011;6257;57.634;18.310;2023-07-20T04:54:59;4.90;;;1.67;;
12385;SDS011;6257;57.634;18.310;2023-07-20T04:57:27;4.20;;;1.50;;
12385;SDS011;6257;57.634;18.310;2023-07-20T04:59:54;3.60;;;1.40;;
12385;SDS011;6257;57.634;18.310;2023-07-20T05:02:22;5.90;;;1.80;;
12385;SDS011;6257;57.634;18.310;2023-07-20T05:04:49;4.27;;;1.50;;
12385;SDS011;6257;57.634;18.310;2023-07-20T05:07:16;6.17;;;1.20;;
12385;SDS011;6257;57.634;18.310;2023-07-20T05:09:43;4.60;;;1.50;;
12385;SDS011;6257;57.634;18.310;2023-07-20T05:12:10;5.20;;;1.90;;
12385;SDS011;6257;57.634;18.310;2023-07-20T05:14:39;3.43;;;1.57;;
12385;SDS011;6257;57.634;18.310;2023-07-20T05:17:07;5.63;;;1.80;;
12385;SDS011;6257;57.634;18.310;2023-07-20T05:19:34;4.43;;;1.23;;
12385;SDS011;6257;57.634;18.310;2023-07-20T05:22:01;4.03;;;1.50;;
12385;SDS011;6257;57.634;18.310;2023-07-20T05:24:29;6.87;;;1.57;;
12385;SDS011;6257;57.634;18.310;2023-07-20T05:26:57;5.83;;;1.60;;
12385;SDS011;6257;57.634;18.310;2023-07-20T05:29:24;4.57;;;1.90;;
12385;SDS011;6257;57.634;18.310;2023-07-20T05:31:53;4.90;;;1.63;;
12385;SDS011;6257;57.634;18.310;2023-07-20T05:34:20;5.10;;;1.90;;
12385;SDS011;6257;57.634;18.310;2023-07-20T05:36:47;4.73;;;1.57;;
12385;SDS011;6257;57.634;18.310;2023-07-20T05:39:16;4.17;;;1.60;;
12385;SDS011;6257;57.634;18.310;2023-07-20T05:41:43;6.03;;;1.70;;
12385;SDS011;6257;57.634;18.310;2023-07-20T05:44:10;3.70;;;1.47;;
12385;SDS011;6257;57.634;18.310;2023-07-20T05:46:42;5.70;;;1.50;;
12385;SDS011;6257;57.634;18.310;2023-07-20T05:49:11;5.07;;;2.37;;
12385;SDS011;6257;57.634;18.310;2023-07-20T05:51:41;4.33;;;1.70;;
12385;SDS011;6257;57.634;18.310;2023-07-20T05:54:11;5.30;;;2.13;;
12385;SDS011;6257;57.634;18.310;2023-07-20T05:56:39;3.13;;;1.40;;
12385;SDS011;6257;57.634;18.310;2023-07-20T05:59:06;6.40;;;1.77;;
12385;SDS011;6257;57.634;18.310;2023-07-20T06:01:33;4.47;;;1.53;;
12385;SDS011;6257;57.634;18.310;2023-07-20T06:04:01;8.73;;;2.10;;
12385;SDS011;6257;57.634;18.310;2023-07-20T06:06:33;6.27;;;1.70;;
12385;SDS011;6257;57.634;18.310;2023-07-20T06:09:00;3.17;;;1.60;;
12385;SDS011;6257;57.634;18.310;2023-07-20T06:11:34;4.73;;;2.13;;
12385;SDS011;6257;57.634;18.310;2023-07-20T06:14:02;4.90;;;1.60;;
12385;SDS011;6257;57.634;18.310;2023-07-20T06:16:29;6.37;;;1.93;;
12385;SDS011;6257;57.634;18.310;2023-07-20T06:18:56;5.17;;;1.63;;
12385;SDS011;6257;57.634;18.310;2023-07-20T06:21:23;5.07;;;1.70;;
12385;SDS011;6257;57.634;18.310;2023-07-20T06:23:51;5.87;;;1.97;;
12385;SDS011;6257;57.634;18.310;2023-07-20T06:26:19;3.23;;;1.30;;
12385;SDS011;6257;57.634;18.310;2023-07-20T06:28:46;3.10;;;1.70;;
12385;SDS011;6257;57.634;18.310;2023-07-20T06:31:13;7.03;;;1.73;;
12385;SDS011;6257;57.634;18.310;2023-07-20T06:33:40;3.17;;;1.73;;
12385;SDS011;6257;57.634;18.310;2023-07-20T06:36:07;4.07;;;1.33;;
12385;SDS011;6257;57.634;18.310;2023-07-20T06:38:34;4.17;;;1.53;;
12385;SDS011;6257;57.634;18.310;2023-07-20T06:41:02;3.27;;;1.30;;
12385;SDS011;6257;57.634;18.310;2023-07-20T06:43:29;3.70;;;1.70;;
12385;SDS011;6257;57.634;18.310;2023-07-20T06:45:56;5.00;;;1.63;;
12385;SDS011;6257;57.634;18.310;2023-07-20T06:48:23;5.10;;;1.50;;
12385;SDS011;6257;57.634;18.310;2023-07-20T06:50:50;4.60;;;1.80;;
12385;SDS011;6257;57.634;18.310;2023-07-20T06:53:18;2.63;;;1.33;;
12385;SDS011;6257;57.634;18.310;2023-07-20T06:55:45;4.40;;;1.70;;
12385;SDS011;6257;57.634;18.310;2023-07-20T06:58:14;3.73;;;1.37;;
12385;SDS011;6257;57.634;18.310;2023-07-20T07:00:41;5.67;;;1.80;;
12385;SDS011;6257;57.634;18.310;2023-07-20T07:03:08;4.57;;;1.83;;
12385;SDS011;6257;57.634;18.310;2023-07-20T07:05:36;4.63;;;1.57;;
12385;SDS011;6257;57.634;18.310;2023-07-20T07:08:03;4.70;;;1.53;;
12385;SDS011;6257;57.634;18.310;2023-07-20T07:10:31;5.70;;;2.13;;
12385;SDS011;6257;57.634;18.310;2023-07-20T07:12:58;4.40;;;1.80;;
12385;SDS011;6257;57.634;18.310;2023-07-20T07:15:27;4.73;;;1.80;;
12385;SDS011;6257;57.634;18.310;2023-07-20T07:17:54;9.17;;;2.03;;
12385;SDS011;6257;57.634;18.310;2023-07-20T07:20:21;5.90;;;1.83;;
12385;SDS011;6257;57.634;18.310;2023-07-20T07:22:50;5.13;;;1.50;;
12385;SDS011;6257;57.634;18.310;2023-07-20T07:25:18;3.43;;;1.37;;
12385;SDS011;6257;57.634;18.310;2023-07-20T07:27:45;3.77;;;1.50;;
12385;SDS011;6257;57.634;18.310;2023-07-20T07:30:12;3.67;;;1.80;;
12385;SDS011;6257;57.634;18.310;2023-07-20T07:32:41;3.23;;;1.20;;
12385;SDS011;6257;57.634;18.310;2023-07-20T07:35:08;3.47;;;1.53;;
12385;SDS011;6257;57.634;18.310;2023-07-20T07:37:36;4.73;;;1.67;;
12385;SDS011;6257;57.634;18.310;2023-07-20T07:40:04;4.13;;;1.40;;
12385;SDS011;6257;57.634;18.310;2023-07-20T07:42:33;4.63;;;1.50;;
12385;SDS011;6257;57.634;18.310;2023-07-20T07:45:00;4.47;;;1.60;;
12385;SDS011;6257;57.634;18.310;2023-07-20T07:47:27;8.47;;;2.00;;
12385;SDS011;6257;57.634;18.310;2023-07-20T07:49:55;4.20;;;1.33;;
12385;SDS011;6257;57.634;18.310;2023-07-20T07:52:23;4.07;;;1.40;;
12385;SDS011;6257;57.634;18.310;2023-07-20T07:54:50;5.73;;;1.60;;
12385;SDS011;6257;57.634;18.310;2023-07-20T07:57:17;2.77;;;1.10;;
12385;SDS011;6257;57.634;18.310;2023-07-20T07:59:44;4.20;;;1.57;;
12385;SDS011;6257;57.634;18.310;2023-07-20T08:02:11;5.83;;;1.50;;
12385;SDS011;6257;57.634;18.310;2023-07-20T08:04:38;3.83;;;1.50;;
12385;SDS011;6257;57.634;18.310;2023-07-20T08:07:07;2.57;;;1.47;;
12385;SDS011;6257;57.634;18.310;2023-07-20T08:09:34;3.80;;;1.60;;
12385;SDS011;6257;57.634;18.310;2023-07-20T08:12:02;7.93;;;1.60;;
12385;SDS011;6257;57.634;18.310;2023-07-20T08:14:29;5.17;;;1.57;;
12385;SDS011;6257;57.634;18.310;2023-07-20T08:16:56;5.40;;;1.40;;
12385;SDS011;6257;57.634;18.310;2023-07-20T08:19:25;5.07;;;1.67;;
12385;SDS011;6257;57.634;18.310;2023-07-20T08:21:53;3.80;;;1.50;;
12385;SDS011;6257;57.634;18.310;2023-07-20T08:24:21;3.97;;;1.30;;
12385;SDS011;6257;57.634;18.310;2023-07-20T08:26:48;6.03;;;1.40;;
12385;SDS011;6257;57.634;18.310;2023-07-20T08:29:15;5.10;;;1.57;;
12385;SDS011;6257;57.634;18.310;2023-07-20T08:31:42;5.40;;;1.80;;
12385;SDS011;6257;57.634;18.310;2023-07-20T08:34:09;4.13;;;1.83;;
12385;SDS011;6257;57.634;18.310;2023-07-20T08:36:36;4.20;;;1.60;;
12385;SDS011;6257;57.634;18.310;2023-07-20T08:39:03;3.47;;;1.53;;
12385;SDS011;6257;57.634;18.310;2023-07-20T08:41:32;2.90;;;1.40;;
12385;SDS011;6257;57.634;18.310;2023-07-20T08:44:00;3.13;;;1.67;;
12385;SDS011;6257;57.634;18.310;2023-07-20T08:46:27;4.50;;;1.90;;
12385;SDS011;6257;57.634;18.310;2023-07-20T08:48:55;5.57;;;1.30;;
12385;SDS011;6257;57.634;18.310;2023-07-20T08:51:23;4.87;;;1.70;;
12385;SDS011;6257;57.634;18.310;2023-07-20T08:53:52;4.87;;;1.60;;
12385;SDS011;6257;57.634;18.310;2023-07-20T08:56:19;4.30;;;1.70;;
12385;SDS011;6257;57.634;18.310;2023-07-20T08:58:49;5.10;;;1.60;;
12385;SDS011;6257;57.634;18.310;2023-07-20T09:01:17;5.13;;;1.50;;
12385;SDS011;6257;57.634;18.310;2023-07-20T09:03:45;5.00;;;1.80;;
12385;SDS011;6257;57.634;18.310;2023-07-20T09:06:12;3.53;;;1.67;;
12385;SDS011;6257;57.634;18.310;2023-07-20T09:08:40;4.27;;;1.33;;
12385;SDS011;6257;57.634;18.310;2023-07-20T09:11:07;5.17;;;1.40;;
12385;SDS011;6257;57.634;18.310;2023-07-20T09:13:38;4.70;;;1.40;;
12385;SDS011;6257;57.634;18.310;2023-07-20T09:16:07;4.77;;;1.63;;
12385;SDS011;6257;57.634;18.310;2023-07-20T09:18:34;5.63;;;1.50;;
12385;SDS011;6257;57.634;18.310;2023-07-20T09:21:02;4.60;;;1.73;;
12385;SDS011;6257;57.634;18.310;2023-07-20T09:23:31;7.70;;;1.63;;
12385;SDS011;6257;57.634;18.310;2023-07-20T09:25:58;3.77;;;1.47;;
12385;SDS011;6257;57.634;18.310;2023-07-20T09:28:26;3.77;;;1.40;;
12385;SDS011;6257;57.634;18.310;2023-07-20T09:30:54;4.60;;;1.60;;
12385;SDS011;6257;57.634;18.310;2023-07-20T09:33:23;2.40;;;1.43;;
12385;SDS011;6257;57.634;18.310;2023-07-20T09:35:50;5.57;;;1.60;;
12385;SDS011;6257;57.634;18.310;2023-07-20T09:38:18;3.00;;;1.37;;
12385;SDS011;6257;57.634;18.310;2023-07-20T09:40:45;4.47;;;1.57;;
12385;SDS011;6257;57.634;18.310;2023-07-20T09:43:12;2.90;;;1.20;;
12385;SDS011;6257;57.634;18.310;2023-07-20T09:45:42;4.27;;;1.50;;
12385;SDS011;6257;57.634;18.310;2023-07-20T09:48:10;6.40;;;1.93;;
12385;SDS011;6257;57.634;18.310;2023-07-20T09:50:42;4.57;;;1.80;;
12385;SDS011;6257;57.634;18.310;2023-07-20T09:53:16;3.30;;;1.80;;
12385;SDS011;6257;57.634;18.310;2023-07-20T09:55:44;3.73;;;1.80;;
12385;SDS011;6257;57.634;18.310;2023-07-20T09:58:12;4.93;;;1.70;;
12385;SDS011;6257;57.634;18.310;2023-07-20T10:00:40;3.23;;;1.70;;
12385;SDS011;6257;57.634;18.310;2023-07-20T10:03:10;4.93;;;1.70;;
12385;SDS011;6257;57.634;18.310;2023-07-20T10:05:39;4.40;;;1.37;;
12385;SDS011;6257;57.634;18.310;2023-07-20T10:08:10;3.77;;;1.53;;
12385;SDS011;6257;57.634;18.310;2023-07-20T10:10:40;4.10;;;1.57;;
12385;SDS011;6257;57.634;18.310;2023-07-20T10:13:10;5.10;;;1.47;;
12385;SDS011;6257;57.634;18.310;2023-07-20T10:15:45;4.33;;;1.50;;
12385;SDS011;6257;57.634;18.310;2023-07-20T10:18:17;3.47;;;1.57;;
12385;SDS011;6257;57.634;18.310;2023-07-20T10:20:51;4.20;;;1.60;;
12385;SDS011;6257;57.634;18.310;2023-07-20T10:23:20;3.77;;;1.50;;
12385;SDS011;6257;57.634;18.310;2023-07-20T10:25:48;3.47;;;1.60;;
12385;SDS011;6257;57.634;18.310;2023-07-20T10:28:16;2.37;;;1.43;;
12385;SDS011;6257;57.634;18.310;2023-07-20T10:30:43;2.00;;;1.40;;
12385;SDS011;6257;57.634;18.310;2023-07-20T10:33:11;2.77;;;1.20;;
12385;SDS011;6257;57.634;18.310;2023-07-20T10:35:53;6.13;;;1.80;;
12385;SDS011;6257;57.634;18.310;2023-07-20T10:41:15;3.90;;;1.43;;
12385;SDS011;6257;57.634;18.310;2023-07-20T10:43:43;3.87;;;1.23;;
12385;SDS011;6257;57.634;18.310;2023-07-20T10:46:10;3.30;;;1.27;;
12385;SDS011;6257;57.634;18.310;2023-07-20T10:51:28;3.47;;;1.43;;
12385;SDS011;6257;57.634;18.310;2023-07-20T10:53:56;3.00;;;1.27;;
12385;SDS011;6257;57.634;18.310;2023-07-20T10:56:25;3.90;;;1.60;;
12385;SDS011;6257;57.634;18.310;2023-07-20T10:58:57;3.40;;;1.30;;
12385;SDS011;6257;57.634;18.310;2023-07-20T11:01:27;2.17;;;1.00;;
12385;SDS011;6257;57.634;18.310;2023-07-20T11:03:57;2.97;;;1.50;;
12385;SDS011;6257;57.634;18.310;2023-07-20T11:06:33;3.20;;;1.30;;
12385;SDS011;6257;57.634;18.310;2023-07-20T11:09:07;1.60;;;1.10;;
12385;SDS011;6257;57.634;18.310;2023-07-20T11:11:36;4.57;;;1.30;;
12385;SDS011;6257;57.634;18.310;2023-07-20T11:14:04;2.17;;;1.17;;
12385;SDS011;6257;57.634;18.310;2023-07-20T11:16:39;4.03;;;1.20;;
12385;SDS011;6257;57.634;18.310;2023-07-20T11:19:13;1.80;;;1.00;;
12385;SDS011;6257;57.634;18.310;2023-07-20T11:21:46;2.20;;;1.10;;
12385;SDS011;6257;57.634;18.310;2023-07-20T11:24:16;1.43;;;1.13;;
12385;SDS011;6257;57.634;18.310;2023-07-20T11:26:43;3.70;;;1.30;;
12385;SDS011;6257;57.634;18.310;2023-07-20T11:29:11;1.63;;;1.10;;
12385;SDS011;6257;57.634;18.310;2023-07-20T11:31:39;2.67;;;1.20;;
12385;SDS011;6257;57.634;18.310;2023-07-20T11:34:09;3.10;;;1.47;;
12385;SDS011;6257;57.634;18.310;2023-07-20T11:36:38;3.70;;;1.30;;
12385;SDS011;6257;57.634;18.310;2023-07-20T11:39:08;2.23;;;1.27;;
12385;SDS011;6257;57.634;18.310;2023-07-20T11:41:35;4.93;;;1.47;;
12385;SDS011;6257;57.634;18.310;2023-07-20T11:44:03;2.20;;;1.17;;
12385;SDS011;6257;57.634;18.310;2023-07-20T11:46:31;3.27;;;1.40;;
12385;SDS011;6257;57.634;18.310;2023-07-20T11:48:58;3.70;;;1.30;;
12385;SDS011;6257;57.634;18.310;2023-07-20T11:51:26;2.67;;;1.17;;
12385;SDS011;6257;57.634;18.310;2023-07-20T11:53:54;1.50;;;1.00;;
12385;SDS011;6257;57.634;18.310;2023-07-20T11:56:23;2.57;;;1.03;;
12385;SDS011;6257;57.634;18.310;2023-07-20T11:58:54;2.97;;;1.23;;
12385;SDS011;6257;57.634;18.310;2023-07-20T12:01:24;5.67;;;1.20;;
12385;SDS011;6257;57.634;18.310;2023-07-20T12:03:54;2.23;;;1.13;;
12385;SDS011;6257;57.634;18.310;2023-07-20T12:06:23;2.37;;;1.20;;
12385;SDS011;6257;57.634;18.310;2023-07-20T12:08:53;2.27;;;1.00;;
12385;SDS011;6257;57.634;18.310;2023-07-20T12:11:34;1.77;;;1.20;;
12385;SDS011;6257;57.634;18.310;2023-07-20T12:14:02;3.40;;;1.30;;
12385;SDS011;6257;57.634;18.310;2023-07-20T12:16:30;2.87;;;1.20;;
12385;SDS011;6257;57.634;18.310;2023-07-20T12:19:00;2.23;;;1.33;;
12385;SDS011;6257;57.634;18.310;2023-07-20T12:21:28;1.90;;;1.20;;
12385;SDS011;6257;57.634;18.310;2023-07-20T12:23:56;4.90;;;1.47;;
12385;SDS011;6257;57.634;18.310;2023-07-20T12:26:24;2.57;;;1.30;;
12385;SDS011;6257;57.634;18.310;2023-07-20T12:28:53;3.73;;;1.07;;
12385;SDS011;6257;57.634;18.310;2023-07-20T12:31:21;2.40;;;1.47;;
12385;SDS011;6257;57.634;18.310;2023-07-20T12:33:49;3.60;;;1.40;;
12385;SDS011;6257;57.634;18.310;2023-07-20T12:36:17;3.17;;;1.80;;
12385;SDS011;6257;57.634;18.310;2023-07-20T12:38:44;3.90;;;1.63;;
12385;SDS011;6257;57.634;18.310;2023-07-20T12:41:12;3.33;;;1.43;;
12385;SDS011;6257;57.634;18.310;2023-07-20T12:43:39;3.87;;;1.43;;
12385;SDS011;6257;57.634;18.310;2023-07-20T12:46:08;3.43;;;1.30;;
12385;SDS011;6257;57.634;18.310;2023-07-20T12:48:36;2.20;;;1.47;;
12385;SDS011;6257;57.634;18.310;2023-07-20T12:51:05;2.60;;;1.30;;
12385;SDS011;6257;57.634;18.310;2023-07-20T12:53:32;2.83;;;1.33;;
12385;SDS011;6257;57.634;18.310;2023-07-20T12:55:59;1.63;;;0.80;;
12385;SDS011;6257;57.634;18.310;2023-07-20T12:58:27;1.63;;;0.90;;
12385;SDS011;6257;57.634;18.310;2023-07-20T13:00:54;2.13;;;0.80;;
12385;SDS011;6257;57.634;18.310;2023-07-20T13:03:22;1.17;;;0.90;;
12385;SDS011;6257;57.634;18.310;2023-07-20T13:05:49;1.30;;;0.80;;
12385;SDS011;6257;57.634;18.310;2023-07-20T13:08:16;2.20;;;1.07;;
12385;SDS011;6257;57.634;18.310;2023-07-20T13:10:44;2.27;;;0.90;;
12385;SDS011;6257;57.634;18.310;2023-07-20T13:13:12;2.10;;;1.00;;
12385;SDS011;6257;57.634;18.310;2023-07-20T13:15:42;1.70;;;0.80;;
12385;SDS011;6257;57.634;18.310;2023-07-20T13:18:11;2.17;;;0.90;;
12385;SDS011;6257;57.634;18.310;2023-07-20T13:20:39;1.87;;;1.00;;
12385;SDS011;6257;57.634;18.310;2023-07-20T13:23:06;1.10;;;0.90;;
12385;SDS011;6257;57.634;18.310;2023-07-20T13:25:33;1.63;;;1.00;;
12385;SDS011;6257;57.634;18.310;2023-07-20T13:28:01;1.50;;;1.07;;
12385;SDS011;6257;57.634;18.310;2023-07-20T13:30:28;1.83;;;1.03;;
12385;SDS011;6257;57.634;18.310;2023-07-20T13:32:55;1.63;;;1.07;;
12385;SDS011;6257;57.634;18.310;2023-07-20T13:35:22;2.50;;;1.20;;
12385;SDS011;6257;57.634;18.310;2023-07-20T13:37:50;2.83;;;1.20;;
12385;SDS011;6257;57.634;18.310;2023-07-20T13:40:17;1.30;;;1.20;;
12385;SDS011;6257;57.634;18.310;2023-07-20T13:42:44;3.70;;;1.23;;
12385;SDS011;6257;57.634;18.310;2023-07-20T13:45:11;1.37;;;1.20;;
12385;SDS011;6257;57.634;18.310;2023-07-20T13:47:38;3.10;;;1.43;;
12385;SDS011;6257;57.634;18.310;2023-07-20T13:50:06;2.57;;;1.10;;
12385;SDS011;6257;57.634;18.310;2023-07-20T13:52:33;1.47;;;1.10;;
12385;SDS011;6257;57.634;18.310;2023-07-20T13:55:03;1.63;;;0.80;;
12385;SDS011;6257;57.634;18.310;2023-07-20T13:57:31;2.80;;;1.30;;
12385;SDS011;6257;57.634;18.310;2023-07-20T13:59:58;3.07;;;1.30;;
12385;SDS011;6257;57.634;18.310;2023-07-20T14:02:26;2.20;;;1.17;;
12385;SDS011;6257;57.634;18.310;2023-07-20T14:04:53;3.07;;;1.40;;
12385;SDS011;6257;57.634;18.310;2023-07-20T14:07:21;2.67;;;1.30;;
12385;SDS011;6257;57.634;18.310;2023-07-20T14:09:48;1.93;;;1.00;;
12385;SDS011;6257;57.634;18.310;2023-07-20T14:12:16;1.17;;;0.80;;
12385;SDS011;6257;57.634;18.310;2023-07-20T14:14:43;2.23;;;0.80;;
12385;SDS011;6257;57.634;18.310;2023-07-20T14:17:11;1.00;;;0.70;;
12385;SDS011;6257;57.634;18.310;2023-07-20T14:19:38;1.73;;;1.00;;
12385;SDS011;6257;57.634;18.310;2023-07-20T14:22:05;3.13;;;0.97;;
12385;SDS011;6257;57.634;18.310;2023-07-20T14:24:32;1.03;;;0.70;;
12385;SDS011;6257;57.634;18.310;2023-07-20T14:26:59;0.70;;;0.70;;
12385;SDS011;6257;57.634;18.310;2023-07-20T14:29:28;1.70;;;0.70;;
12385;SDS011;6257;57.634;18.310;2023-07-20T14:31:56;1.50;;;0.70;;
12385;SDS011;6257;57.634;18.310;2023-07-20T14:34:24;1.43;;;0.80;;
12385;SDS011;6257;57.634;18.310;2023-07-20T14:36:51;1.53;;;0.80;;
12385;SDS011;6257;57.634;18.310;2023-07-20T14:39:18;2.37;;;0.70;;
12385;SDS011;6257;57.634;18.310;2023-07-20T14:41:45;3.13;;;1.10;;
12385;SDS011;6257;57.634;18.310;2023-07-20T14:44:12;1.23;;;1.00;;
12385;SDS011;6257;57.634;18.310;2023-07-20T14:46:43;2.03;;;1.03;;
12385;SDS011;6257;57.634;18.310;2023-07-20T14:49:10;1.50;;;1.00;;
12385;SDS011;6257;57.634;18.310;2023-07-20T14:51:37;1.03;;;0.90;;
12385;SDS011;6257;57.634;18.310;2023-07-20T14:54:08;2.33;;;1.20;;
12385;SDS011;6257;57.634;18.310;2023-07-20T14:56:37;1.30;;;1.00;;
12385;SDS011;6257;57.634;18.310;2023-07-20T14:59:04;1.87;;;0.90;;
12385;SDS011;6257;57.634;18.310;2023-07-20T15:01:31;1.33;;;0.90;;